Box Hill, New York
Current Conditions -  °F | °C
As of 4:56 PM on Wednesday 22 Oct 2014 (Local Time) from KISP Reporting Station
Light Rain Light Rain  
Wind Chill: 53°   Ceiling: 1300
Heat Index: 53°   Visibility: 8mi
Dew Point: 49°   Wind: 24mph
Humidity: 86%   Direction: 20°NNE
Pressure: 29.76"   Gusts: 33mph
Location:  40.8903°N, 73.169°W
Report Text: KISP 222056Z 02021G29KT 8SM -RA BKN013 OVC020 12/09 A2976 RMK AO2 PK WND 03033/2013 RAB22 SLP076 P0000 60000 T01170094 56021
Loading
Personal Weather Stations






























Interactive Weather Map
Tropical Storm Tracking
New forecast layout! Learn more

10-Day Weather Forecast

Advertisements
Track Severe Weather on mobile